AirNav   Bose Proflight Series 2 Wireless Aviation Headset
 
 930 users online  

ME33 Farr Field Airport
Harpswell, Maine, USA

GOING TO HARPSWELL?


FAA INFORMATION EFFECTIVE 07 NOVEMBER 2019

Location

FAA Identifier: ME33
Lat/Long: 43-46-43.2970N 070-00-47.1720W
43-46.721617N 070-00.786200W
43.7786936,-70.0131033
(estimated)
Elevation: 70 ft. / 21 m (estimated)
Variation: 17W (1985)
From city: 2 miles SW of HARPSWELL, ME
Time zone: UTC -5 (UTC -4 during Daylight Saving Time)
Zip code: 04079

Airport Operations

Airport use: Private use. Permission required prior to landing
Activation date: 08/1975
Control tower: no
ARTCC: BOSTON CENTER
FSS: BANGOR FLIGHT SERVICE STATION
Attendance: IREG
Wind indicator: no
Segmented circle: no

Airport Communications

WX AWOS-AV at BXM (8 nm NE): 134.875 (207-409-1747)
WX ASOS at PWM (15 nm SW): PHONE 207-874-7914
WX ASOS-A at IWI (17 nm NE): 135.725 (207-882-8094)
WX AWOS-3PT at LEW (20 nm NW): 118.025 (207-783-2806)

Nearby radio navigation aids

VOR radial/distance  VOR name  Freq  Var
ENEr068/33.6KENNEBUNK VOR/DME117.1017W
AUGr214/33.8AUGUSTA VOR/DME111.4018W

Airport Services

Airframe service: NONE
Powerplant service: NONE

Runway Information

Runway 14/32

Dimensions: 1900 x 100 ft. / 579 x 30 m
Surface: turf
RUNWAY 14  RUNWAY 32
Traffic pattern: leftleft
Obstructions: treesnone

Airport Ownership and Management from official FAA records

Ownership: Privately-owned
Owner: KEYSTONE LLC
4048 SE BARCELONA STREET
STUART, FL 34997
Phone 207-522-5646
Manager: KEYSTONE LLC
4048 SE BARCELONA STREET
STUART, FL 34997
Phone 207-522-5646

Airport Operational Statistics

Aircraft based on the field: 1
Single engine airplanes: 1
    

Additional Remarks

RWY SUBJ TO FROST ACTION SPRING & WINTER. SNOW PLOWED SOMETIMES - CHECK FSS.
RWY ABOUT 30' HIGHER ON EASTERLY END.
FOR CD CTC PORTLAND APCH AT 207-874-7320, WHEN APCH CLSD CTC BOSTON ARTCC AT 603-879-6859.

Instrument Procedures

There are no published instrument procedures at ME33.

Some nearby airports with instrument procedures:

KBXM - Brunswick Executive Airport (8 nm NE)
KPWM - Portland International Jetport (15 nm SW)
KIWI - Wiscasset Airport (17 nm NE)
KLEW - Auburn/Lewiston Municipal Airport (20 nm NW)
B19 - Biddeford Municipal Airport (27 nm SW)
 
Loc | Ops | Rwys | IFR | FBO | Links
Com | Nav | Svcs | Stats | Notes

Auburn-Lewiston Municipal Airport
 
Area around ME33 (Farr Field Airport)
 
Road maps at: MapQuest Bing Google
 
Aerial photo
No photo
 
Sectional chart

 
Airport distance calculator
Flying to Farr Field Airport? Find the distance to fly.

From to ME33

Sunrise and sunset
Times for 18-Nov-2019
 Local
(UTC-5)
 Zulu
(UTC)
Morning civil twilight06:0811:08
Sunrise06:3911:39
Sunset16:1121:11
Evening civil twilight16:4221:42

Current date and time
Zulu (UTC)  18-Nov-2019 14:01:47
Local (UTC-5)  18-Nov-2019 09:01:47
 
METAR
KPWM 
15nm SW 
181351Z 36012KT 10SM OVC012 M01/M05 A3001 RMK AO2 SLP162 T10061050
KIWI 
17nm NE 
181353Z AUTO VRB05KT 10SM OVC013 M02/M06 A3003 RMK AO2 SLP169 T10171056
KLEW 
19nm NW 
181356Z AUTO 01010KT 3SM -SN OVC011 M02/M05 A3004 RMK AO2 SNB52 SLP183 P0000 T10221050 FZRANO
TAF
KPWM 
15nm SW 
181121Z 1811/1912 01007KT P6SM OVC020 FM181330 01011KT P6SM -FZDZ OVC015 FM181500 01009KT 3SM -RA OVC008 FM182100 01013KT 2SM -RA OVC003
NOTAMs
Click for the latest NOTAMs
NOTAMs are issued by the DoD/FAA and will open in a separate window not controlled by AirNav.

 

 
 

Would you like to see your business listed on this page?

 If your business provides an interesting product or service to pilots, flight crews, aircraft, or users of the Farr Field Airport, you should consider listing it here.  To start the listing process, click on the button below
 
Add a business
 

Other Pages about Farr Field Airport

Update a link
 
Copyright © AirNav, LLC. All rights reserved. Privacy Policy  Contact